Time;durP1;ratioP1;P1;durP2;ratioP2;P2;SDS_P1;SDS_P2;PMS_P1;PMS_P2;Temp;Humidity;BMP_temperature;BMP_pressure;BME280_temperature;BME280_humidity;BME280_pressure;Samples;Min_cycle;Max_cycle;Signal;HPM_P1;HPM_P2
2021/04/01 00:01:11;;;;;;;6.67;4.60;;;10.80;88.50;;;;;;5045774;28;20581;-69
2021/04/01 00:03:38;;;;;;;5.83;4.30;;;10.70;88.80;;;;;;5045988;28;21233;-69
2021/04/01 00:06:04;;;;;;;7.27;5.20;;;10.70;89.20;;;;;;5045375;28;20545;-70
2021/04/01 00:08:31;;;;;;;6.23;4.70;;;10.70;89.20;;;;;;5045900;28;20467;-69
2021/04/01 00:10:57;;;;;;;8.83;4.80;;;10.70;89.90;;;;;;5047095;28;20499;-70
2021/04/01 00:13:24;;;;;;;4.80;4.30;;;10.60;89.70;;;;;;5046719;28;20470;-70
2021/04/01 00:15:52;;;;;;;6.27;5.20;;;10.60;89.70;;;;;;5046881;28;20204;-70
2021/04/01 00:18:21;;;;;;;6.70;4.77;;;10.60;89.90;;;;;;5046141;28;20468;-69
2021/04/01 00:20:48;;;;;;;7.43;5.03;;;10.60;90.00;;;;;;5046310;28;20479;-68
2021/04/01 00:23:14;;;;;;;5.33;4.83;;;10.50;90.10;;;;;;5045906;28;20212;-69
2021/04/01 00:25:40;;;;;;;6.40;4.53;;;10.50;90.30;;;;;;5049723;28;20459;-70
2021/04/01 00:30:40;;;;;;;5.80;4.73;;;10.50;90.40;;;;;;5067493;28;21008;-74
2021/04/01 00:33:06;;;;;;;9.40;5.33;;;10.40;90.40;;;;;;5071130;28;20461;-74
2021/04/01 00:35:33;;;;;;;6.70;5.30;;;10.30;90.30;;;;;;5070341;28;20459;-74
2021/04/01 00:37:59;;;;;;;9.50;5.03;;;10.30;90.20;;;;;;5070825;28;20465;-74
2021/04/01 00:40:26;;;;;;;6.63;5.40;;;10.30;90.20;;;;;;5069929;28;20466;-74
2021/04/01 00:42:53;;;;;;;6.97;4.97;;;10.20;90.20;;;;;;5070921;28;20466;-74
2021/04/01 00:45:20;;;;;;;7.00;5.47;;;10.20;90.30;;;;;;5070306;28;20250;-74
2021/04/01 00:47:48;;;;;;;7.83;6.27;;;10.10;90.10;;;;;;5070804;28;20473;-73
2021/04/01 00:50:17;;;;;;;7.37;5.00;;;10.10;90.40;;;;;;5069792;28;20458;-74
2021/04/01 00:52:44;;;;;;;15.00;5.10;;;10.10;90.50;;;;;;5070782;28;20461;-74
2021/04/01 00:55:12;;;;;;;8.40;5.10;;;10.10;90.60;;;;;;5070473;28;20549;-74
2021/04/01 00:57:40;;;;;;;11.35;5.60;;;10.00;90.60;;;;;;5070019;28;20989;-74
2021/04/01 01:00:10;;;;;;;7.20;4.95;;;10.00;90.70;;;;;;5069914;28;20200;-74
2021/04/01 01:02:36;;;;;;;7.90;5.93;;;10.00;90.80;;;;;;5069643;28;20707;-74
2021/04/01 01:05:03;;;;;;;12.93;5.68;;;9.90;91.40;;;;;;5070575;28;20204;-74
2021/04/01 01:07:30;;;;;;;9.90;5.90;;;9.90;91.30;;;;;;5069568;28;20711;-74
2021/04/01 01:09:57;;;;;;;8.20;5.50;;;9.80;91.20;;;;;;5069603;28;20208;-74
2021/04/01 01:12:23;;;;;;;7.07;4.78;;;9.80;91.20;;;;;;5069657;28;20624;-74
2021/04/01 01:14:50;;;;;;;6.07;4.65;;;9.80;91.10;;;;;;5069736;28;20741;-74
2021/04/01 01:17:17;;;;;;;5.70;5.10;;;9.80;91.30;;;;;;5069875;28;20550;-74
2021/04/01 01:19:52;;;;;;;10.00;5.83;;;9.70;91.50;;;;;;5069084;28;20466;-74
2021/04/01 01:22:19;;;;;;;7.10;4.80;;;9.70;91.70;;;;;;5069451;28;20477;-74
2021/04/01 01:24:47;;;;;;;7.05;4.90;;;9.60;91.80;;;;;;5069285;28;20489;-73
2021/04/01 01:27:13;;;;;;;6.87;5.70;;;9.60;91.90;;;;;;5069823;28;20734;-74
2021/04/01 01:29:40;;;;;;;7.18;5.20;;;9.50;92.20;;;;;;5068533;28;20466;-74
2021/04/01 01:32:08;;;;;;;6.15;4.55;;;9.50;92.30;;;;;;5069426;28;20232;-74
2021/04/01 01:34:35;;;;;;;6.22;4.82;;;9.50;92.50;;;;;;5069011;28;20208;-73
2021/04/01 01:37:01;;;;;;;8.02;6.10;;;9.40;92.30;;;;;;5069372;28;20255;-73
2021/04/01 01:39:28;;;;;;;7.28;5.18;;;9.40;92.30;;;;;;5068943;28;20203;-74
2021/04/01 01:41:55;;;;;;;7.50;4.90;;;9.40;92.20;;;;;;5069157;28;20703;-74
2021/04/01 01:44:21;;;;;;;6.82;4.63;;;9.40;92.30;;;;;;5068804;28;20212;-74
2021/04/01 01:46:47;;;;;;;7.93;5.25;;;9.40;92.20;;;;;;5069504;28;20204;-73
2021/04/01 01:49:14;;;;;;;7.07;4.80;;;9.40;92.40;;;;;;5068880;28;20268;-73
2021/04/01 01:51:40;;;;;;;6.68;4.50;;;9.30;92.50;;;;;;5069222;28;20228;-73
2021/04/01 01:54:06;;;;;;;5.93;5.10;;;9.30;92.60;;;;;;5069478;28;20196;-73
2021/04/01 01:56:34;;;;;;;7.55;4.65;;;9.30;92.60;;;;;;5069241;28;20200;-73
2021/04/01 01:59:01;;;;;;;7.65;5.28;;;9.30;92.70;;;;;;5068787;28;20599;-74
2021/04/01 02:01:27;;;;;;;8.77;5.07;;;9.20;92.80;;;;;;5069100;28;20224;-75
2021/04/01 02:03:54;;;;;;;7.82;4.32;;;9.20;92.80;;;;;;5069203;28;20872;-74
2021/04/01 02:06:21;;;;;;;8.85;5.13;;;9.10;92.90;;;;;;5068885;28;20200;-74
2021/04/01 02:08:48;;;;;;;6.57;5.45;;;9.10;93.00;;;;;;5068718;28;20211;-74
2021/04/01 02:11:16;;;;;;;8.73;5.30;;;9.00;93.20;;;;;;5068967;28;20292;-74
2021/04/01 02:13:43;;;;;;;6.47;4.68;;;9.00;93.30;;;;;;5069219;28;20200;-74
2021/04/01 02:16:13;;;;;;;7.60;4.90;;;9.00;93.40;;;;;;5069251;28;20277;-73
2021/04/01 02:18:39;;;;;;;5.82;4.60;;;9.00;93.40;;;;;;5069066;28;20250;-73
2021/04/01 02:21:08;;;;;;;7.35;5.13;;;9.00;93.30;;;;;;5069532;28;20265;-73
2021/04/01 02:23:35;;;;;;;7.68;5.40;;;8.90;93.30;;;;;;5069392;28;20287;-74
2021/04/01 02:26:04;;;;;;;6.25;4.72;;;8.90;93.50;;;;;;5069083;28;20200;-74
2021/04/01 02:28:32;;;;;;;9.48;4.80;;;8.80;93.60;;;;;;5068374;28;20200;-73
2021/04/01 02:31:00;;;;;;;8.63;5.80;;;8.80;94.10;;;;;;5068798;28;20729;-74
2021/04/01 02:33:30;;;;;;;8.10;5.70;;;8.80;93.80;;;;;;5069084;28;20200;-74
2021/04/01 02:35:57;;;;;;;7.97;5.00;;;8.80;93.80;;;;;;5069011;28;20215;-73
2021/04/01 02:38:25;;;;;;;10.38;5.55;;;8.70;93.70;;;;;;5068482;28;20204;-73
2021/04/01 02:40:51;;;;;;;9.38;5.55;;;8.70;93.70;;;;;;5068883;28;20638;-74
2021/04/01 02:43:22;;;;;;;5.43;4.75;;;8.60;93.90;;;;;;5068879;28;20211;-73
2021/04/01 02:45:48;;;;;;;6.13;5.28;;;8.60;94.00;;;;;;5071340;28;20220;-73
2021/04/01 02:48:14;;;;;;;9.43;5.20;;;8.60;94.10;;;;;;5072660;28;20211;-74
2021/04/01 02:50:41;;;;;;;7.05;6.10;;;8.70;94.20;;;;;;5072601;28;20230;-74
2021/04/01 02:53:08;;;;;;;9.10;5.65;;;8.60;94.30;;;;;;5072942;28;20247;-74
2021/04/01 02:55:34;;;;;;;6.35;4.45;;;8.60;94.50;;;;;;5072994;28;20659;-74
2021/04/01 02:58:00;;;;;;;6.43;4.68;;;8.50;94.60;;;;;;5072803;28;20204;-74
2021/04/01 03:00:29;;;;;;;7.82;5.07;;;8.50;94.80;;;;;;5072117;28;20254;-74
2021/04/01 03:02:58;;;;;;;8.00;4.88;;;8.50;94.80;;;;;;5072805;28;20234;-74
2021/04/01 03:05:24;;;;;;;8.23;5.78;;;8.50;94.80;;;;;;5072501;28;20214;-73
2021/04/01 03:07:52;;;;;;;6.82;5.82;;;8.50;95.00;;;;;;5072813;28;20204;-74
2021/04/01 03:10:18;;;;;;;7.65;4.90;;;8.50;95.00;;;;;;5071883;28;20271;-74
2021/04/01 03:12:44;;;;;;;7.90;5.20;;;8.40;95.10;;;;;;5072915;28;20660;-73
2021/04/01 03:15:12;;;;;;;6.85;4.90;;;8.30;95.30;;;;;;5072735;28;20204;-73
2021/04/01 03:17:39;;;;;;;12.43;5.50;;;8.30;95.40;;;;;;5073903;28;20679;-73
2021/04/01 03:20:07;;;;;;;9.57;5.30;;;8.30;95.50;;;;;;5071905;28;20208;-73
2021/04/01 03:22:33;;;;;;;8.60;5.10;;;8.30;95.50;;;;;;5072433;28;21209;-73
2021/04/01 03:25:00;;;;;;;8.40;4.75;;;8.20;95.60;;;;;;5072348;28;20200;-73
2021/04/01 03:27:26;;;;;;;4.93;4.40;;;8.20;95.70;;;;;;5072208;28;20567;-73
2021/04/01 03:30:05;;;;;;;6.53;4.60;;;8.20;95.70;;;;;;5071813;28;20215;-73
2021/04/01 03:32:32;;;;;;;7.03;4.65;;;8.20;95.90;;;;;;5071816;28;20640;-73
2021/04/01 03:34:59;;;;;;;5.38;4.22;;;8.10;95.90;;;;;;5071908;28;20208;-72
2021/04/01 03:37:25;;;;;;;7.45;4.95;;;8.20;96.30;;;;;;5071495;28;20205;-73
2021/04/01 03:39:52;;;;;;;5.70;4.60;;;8.10;96.10;;;;;;5071585;28;20202;-73
2021/04/01 03:42:19;;;;;;;10.57;5.13;;;8.10;96.20;;;;;;5071557;28;21106;-72
2021/04/01 03:44:45;;;;;;;8.32;4.60;;;8.10;96.30;;;;;;5071711;28;20254;-72
2021/04/01 03:47:12;;;;;;;5.20;3.80;;;8.10;96.30;;;;;;5071528;28;20207;-74
2021/04/01 03:49:38;;;;;;;5.38;4.30;;;8.10;96.30;;;;;;5071138;28;20201;-74
2021/04/01 03:52:05;;;;;;;5.88;4.60;;;8.10;96.30;;;;;;5071936;28;20236;-75
2021/04/01 03:54:32;;;;;;;5.38;4.35;;;8.10;96.40;;;;;;5071515;28;20205;-75
2021/04/01 03:57:02;;;;;;;13.90;5.10;;;8.10;96.50;;;;;;5054517;28;20224;-74
2021/04/01 03:59:34;;;;;;;5.85;4.53;;;8.00;96.60;;;;;;5050983;28;20201;-75
2021/04/01 04:02:23;;;;;;;8.18;4.90;;;8.00;96.60;;;;;;5051889;28;20228;-74
2021/04/01 04:05:10;;;;;;;5.65;4.30;;;8.00;96.60;;;;;;5054569;28;20292;-74
2021/04/01 04:13:20;;;;;;;7.00;4.90;;;7.90;96.80;;;;;;5051281;28;20224;-74
2021/04/01 04:15:47;;;;;;;7.15;4.93;;;7.90;96.90;;;;;;5050809;28;20216;-74
2021/04/01 04:18:14;;;;;;;6.90;4.90;;;7.90;97.00;;;;;;5050802;28;20578;-72
2021/04/01 04:20:40;;;;;;;7.30;4.80;;;7.90;97.00;;;;;;5050969;28;20217;-74
2021/04/01 04:23:09;;;;;;;6.50;4.85;;;7.90;97.00;;;;;;5050547;28;20205;-74
2021/04/01 04:25:36;;;;;;;7.82;4.60;;;7.90;97.10;;;;;;5050926;28;20205;-73
2021/04/01 04:28:12;;;;;;;6.90;4.82;;;7.90;97.30;;;;;;5050665;28;20201;-73
2021/04/01 04:30:38;;;;;;;6.37;5.07;;;7.90;97.20;;;;;;5049386;28;20237;-73
2021/04/01 04:33:05;;;;;;;10.75;5.07;;;7.80;97.30;;;;;;5048582;28;20201;-73
2021/04/01 04:35:32;;;;;;;6.75;4.63;;;7.80;97.60;;;;;;5049315;28;20204;-72
2021/04/01 04:37:59;;;;;;;12.18;5.05;;;7.80;97.70;;;;;;5049404;28;20205;-73
2021/04/01 04:40:26;;;;;;;5.95;4.90;;;7.80;97.70;;;;;;5048968;28;20205;-73
2021/04/01 04:42:52;;;;;;;5.60;5.10;;;7.80;97.90;;;;;;5050045;28;20203;-73
2021/04/01 04:45:18;;;;;;;7.22;4.68;;;7.80;98.00;;;;;;5050217;28;20205;-73
2021/04/01 04:47:44;;;;;;;6.72;4.97;;;7.80;97.90;;;;;;5050731;28;20212;-73
2021/04/01 04:50:13;;;;;;;7.88;5.28;;;7.80;97.70;;;;;;5049822;28;20216;-73
2021/04/01 04:52:40;;;;;;;8.32;5.07;;;7.80;97.50;;;;;;5050320;28;20224;-73
2021/04/01 04:55:09;;;;;;;7.25;4.95;;;7.80;97.60;;;;;;5050015;28;20254;-73
2021/04/01 04:57:39;;;;;;;9.07;5.13;;;7.90;97.70;;;;;;5050153;28;20205;-73
2021/04/01 05:05:36;;;;;;;8.75;5.20;;;7.90;98.00;;;;;;5069713;28;20214;-73
2021/04/01 05:08:02;;;;;;;10.43;5.50;;;7.80;97.90;;;;;;5069364;28;20287;-73
2021/04/01 05:10:29;;;;;;;7.40;5.50;;;7.80;97.90;;;;;;5068545;28;20364;-73
2021/04/01 05:13:07;;;;;;;8.95;6.47;;;7.80;98.00;;;;;;5060624;28;20298;-73
2021/04/01 05:15:34;;;;;;;6.70;5.35;;;7.80;98.00;;;;;;5054739;28;20252;-73
2021/04/01 05:18:13;;;;;;;8.98;5.55;;;7.80;98.20;;;;;;5054329;28;20292;-73
2021/04/01 05:20:40;;;;;;;7.70;5.35;;;7.80;98.20;;;;;;5057115;28;20235;-73
2021/04/01 05:23:10;;;;;;;8.43;5.50;;;7.80;98.30;;;;;;5058393;28;20264;-73
2021/04/01 05:25:36;;;;;;;11.68;4.88;;;7.90;98.30;;;;;;5061110;28;20745;-73
2021/04/01 05:28:06;;;;;;;7.70;5.97;;;7.90;98.40;;;;;;5069745;28;20889;-73
2021/04/01 05:30:32;;;;;;;8.95;5.30;;;7.90;98.40;;;;;;5068925;28;20212;-74
2021/04/01 05:32:58;;;;;;;6.15;5.32;;;8.00;98.50;;;;;;5072239;28;20216;-74
2021/04/01 05:35:24;;;;;;;8.57;6.38;;;8.00;98.30;;;;;;5069301;28;20968;-74
2021/04/01 05:37:52;;;;;;;7.47;4.93;;;8.10;98.20;;;;;;5057647;28;20209;-73
2021/04/01 05:40:20;;;;;;;5.55;4.80;;;8.10;98.20;;;;;;5057602;28;20283;-73
2021/04/01 05:42:47;;;;;;;6.32;5.22;;;8.20;98.30;;;;;;5059171;28;20189;-74
2021/04/01 05:45:17;;;;;;;7.60;5.88;;;8.20;98.20;;;;;;5059425;28;20196;-74
2021/04/01 05:47:46;;;;;;;12.32;5.82;;;8.30;98.20;;;;;;5064468;28;20200;-74
2021/04/01 05:50:26;;;;;;;8.82;5.35;;;8.30;98.20;;;;;;5068332;28;20204;-73
2021/04/01 06:01:47;;;;;;;6.57;4.90;;;8.60;98.30;;;;;;5068614;28;20242;-74
2021/04/01 06:04:20;;;;;;;9.85;5.75;;;8.70;98.80;;;;;;5068591;28;20196;-74
2021/04/01 06:06:52;;;;;;;6.00;5.35;;;8.70;98.40;;;;;;5068914;28;20212;-74
2021/04/01 06:09:22;;;;;;;6.72;5.50;;;8.80;98.40;;;;;;5068056;28;20208;-75
2021/04/01 06:11:52;;;;;;;6.43;5.35;;;8.90;98.60;;;;;;5068455;28;20219;-73
2021/04/01 06:14:38;;;;;;;10.23;5.82;;;8.90;98.30;;;;;;5068436;28;20204;-73
2021/04/01 06:17:06;;;;;;;5.43;4.47;;;9.00;98.40;;;;;;5068906;28;20435;-75
2021/04/01 06:19:36;;;;;;;6.93;4.38;;;9.10;98.50;;;;;;5067608;28;20243;-73
2021/04/01 06:22:04;;;;;;;6.95;5.57;;;9.20;98.40;;;;;;5068704;28;20220;-74
2021/04/01 06:24:32;;;;;;;11.30;6.00;;;9.20;98.20;;;;;;5068375;28;20215;-74
2021/04/01 06:27:02;;;;;;;6.28;5.05;;;9.30;98.00;;;;;;5068750;28;20238;-75
2021/04/01 06:32:02;;;;;;;7.57;5.90;;;9.60;98.00;;;;;;5050698;28;20656;-89
2021/04/01 06:34:35;;;;;;;11.80;6.07;;;9.70;98.10;;;;;;5052522;28;20590;-89
2021/04/01 06:37:03;;;;;;;10.13;6.05;;;9.90;98.00;;;;;;5051544;28;20239;-89
2021/04/01 06:39:30;;;;;;;8.07;5.80;;;10.00;97.30;;;;;;5051717;28;20704;-89
2021/04/01 06:42:29;;;;;;;15.75;6.45;;;10.20;97.10;;;;;;5054192;28;20201;-90
2021/04/01 06:45:02;;;;;;;13.37;6.13;;;10.40;96.80;;;;;;5052464;28;20238;-89
2021/04/01 06:47:33;;;;;;;8.30;5.72;;;10.50;96.60;;;;;;5051677;28;20468;-89
2021/04/01 06:50:05;;;;;;;11.60;6.50;;;10.70;96.80;;;;;;5051672;28;20591;-89
2021/04/01 06:52:39;;;;;;;9.20;6.10;;;11.00;97.50;;;;;;5053281;28;20254;-92
2021/04/01 06:55:19;;;;;;;10.80;6.03;;;11.20;97.20;;;;;;5053045;28;20955;-92
2021/04/01 07:00:43;;;;;;;12.37;6.00;;;11.70;97.10;;;;;;5051113;28;20475;-92
2021/04/01 07:03:13;;;;;;;10.40;6.47;;;12.10;96.80;;;;;;5055495;28;20455;-92
2021/04/01 07:06:03;;;;;;;8.63;5.87;;;12.40;96.90;;;;;;5054091;28;20459;-91
2021/04/01 07:08:51;;;;;;;8.97;6.10;;;12.80;96.80;;;;;;5055978;28;21015;-91
2021/04/01 07:11:31;;;;;;;8.73;6.53;;;13.10;96.60;;;;;;5055169;28;20538;-91
2021/04/01 07:14:03;;;;;;;9.27;5.40;;;13.50;96.40;;;;;;5055952;28;20470;-92
2021/04/01 07:16:43;;;;;;;7.97;5.77;;;13.80;96.00;;;;;;5054022;28;20469;-93
2021/04/01 07:45:03;;;;;;;7.13;5.10;;;17.10;91.50;;;;;;5091787;28;20518;-72
2021/04/01 07:47:32;;;;;;;10.27;6.30;;;17.60;90.80;;;;;;5091632;28;20464;-72
2021/04/01 07:50:08;;;;;;;9.70;5.20;;;18.00;90.10;;;;;;5091993;28;20540;-72
2021/04/01 07:52:36;;;;;;;9.70;5.80;;;18.30;88.90;;;;;;5112183;28;20476;-73
2021/04/01 07:55:09;;;;;;;8.87;6.10;;;18.80;88.70;;;;;;5103073;28;20469;-73
2021/04/01 08:00:31;;;;;;;11.17;5.73;;;19.20;85.40;;;;;;5085463;28;20471;-73
2021/04/01 08:03:06;;;;;;;9.10;5.90;;;19.40;84.70;;;;;;5079491;28;20483;-73
2021/04/01 08:05:34;;;;;;;8.37;5.40;;;20.10;84.70;;;;;;5087319;28;21063;-72
2021/04/01 08:08:07;;;;;;;8.57;5.80;;;20.60;82.50;;;;;;5089562;28;20492;-72
2021/04/01 08:10:38;;;;;;;10.30;5.40;;;21.20;81.50;;;;;;5090059;28;20457;-73
2021/04/01 08:13:07;;;;;;;10.20;6.50;;;21.90;80.30;;;;;;5089128;28;20511;-73
2021/04/01 08:15:38;;;;;;;8.33;5.17;;;22.60;78.50;;;;;;5090312;28;20461;-73
2021/04/01 08:18:23;;;;;;;8.80;5.87;;;23.10;75.90;;;;;;5093436;28;20470;-73
2021/04/01 08:20:52;;;;;;;7.67;5.03;;;23.60;75.20;;;;;;5116383;28;20455;-72
2021/04/01 08:23:21;;;;;;;6.73;5.37;;;24.10;73.90;;;;;;5113285;28;20483;-72
2021/04/01 08:25:54;;;;;;;5.83;4.20;;;24.20;73.20;;;;;;5101872;28;20868;-72
2021/04/01 08:28:34;;;;;;;8.67;4.60;;;24.00;71.60;;;;;;5080306;28;20459;-73
2021/04/01 08:33:57;;;;;;;3.20;2.90;;;25.20;68.40;;;;;;5068175;28;20465;-73
2021/04/01 08:36:26;;;;;;;3.60;3.10;;;26.10;65.20;;;;;;5085525;28;20462;-72
2021/04/01 08:38:53;;;;;;;5.20;3.30;;;26.60;61.80;;;;;;5087341;28;20545;-73
2021/04/01 08:41:37;;;;;;;3.27;2.57;;;27.10;60.70;;;;;;5085846;28;20501;-72
2021/04/01 08:44:28;;;;;;;3.93;3.33;;;27.80;58.70;;;;;;5080473;28;20469;-72
2021/04/01 08:47:10;;;;;;;3.40;2.77;;;28.50;57.60;;;;;;5087310;28;20461;-72
2021/04/01 08:49:42;;;;;;;2.90;2.57;;;29.10;57.70;;;;;;5085993;28;20485;-74
2021/04/01 08:52:54;;;;;;;9.27;3.33;;;29.20;56.40;;;;;;5094692;28;20473;-72
2021/04/01 08:55:28;;;;;;;5.00;2.90;;;28.90;55.60;;;;;;5084526;28;21045;-72
2021/04/01 08:58:03;;;;;;;4.07;3.20;;;28.70;57.00;;;;;;5084998;28;21105;-72
2021/04/01 09:00:31;;;;;;;3.50;2.83;;;28.40;59.30;;;;;;5084324;28;20457;-72
2021/04/01 09:02:58;;;;;;;2.70;2.47;;;28.60;56.90;;;;;;5083047;28;20504;-72
2021/04/01 09:05:25;;;;;;;6.43;3.20;;;28.50;57.20;;;;;;5085009;28;20465;-72
2021/04/01 09:07:54;;;;;;;4.90;3.30;;;28.40;56.50;;;;;;5072899;28;20459;-72
2021/04/01 09:10:21;;;;;;;3.67;2.80;;;28.40;57.40;;;;;;5087225;28;20573;-72
2021/04/01 09:12:53;;;;;;;7.37;3.40;;;28.20;57.00;;;;;;5083622;28;20523;-72
2021/04/01 09:15:31;;;;;;;3.80;3.40;;;28.40;56.50;;;;;;5080930;28;20462;-72
2021/04/01 09:17:58;;;;;;;6.03;3.20;;;28.50;56.40;;;;;;5086168;28;20463;-72
2021/04/01 09:20:27;;;;;;;3.80;3.17;;;28.60;56.50;;;;;;5085448;28;20462;-72
2021/04/01 09:22:56;;;;;;;6.53;3.03;;;28.50;57.20;;;;;;5079907;28;20530;-70
2021/04/01 09:25:35;;;;;;;3.90;3.20;;;28.80;55.80;;;;;;5081341;28;20895;-71
2021/04/01 09:28:05;;;;;;;9.60;3.43;;;29.00;55.00;;;;;;5084139;28;20466;-71
2021/04/01 09:30:32;;;;;;;6.50;3.30;;;29.00;55.40;;;;;;5086798;28;20489;-71
2021/04/01 09:33:02;;;;;;;4.67;3.10;;;29.00;55.20;;;;;;5083805;28;20466;-70
2021/04/01 09:35:31;;;;;;;4.27;3.23;;;29.00;55.00;;;;;;5083267;28;21031;-70
2021/04/01 09:38:00;;;;;;;3.80;2.80;;;29.20;55.80;;;;;;5081989;28;20478;-71
2021/04/01 09:40:31;;;;;;;3.90;3.10;;;29.20;55.40;;;;;;5087132;28;20555;-71
2021/04/01 09:43:12;;;;;;;3.13;2.80;;;29.00;55.90;;;;;;5084204;28;20487;-71
2021/04/01 09:45:40;;;;;;;4.23;3.20;;;28.90;56.30;;;;;;5081025;28;20455;-70
2021/04/01 09:48:08;;;;;;;5.40;3.60;;;28.70;57.00;;;;;;5084854;28;20466;-70
2021/04/01 09:50:37;;;;;;;7.90;4.00;;;28.60;57.80;;;;;;5081602;28;20949;-70
2021/04/01 09:53:09;;;;;;;5.27;4.40;;;28.80;59.60;;;;;;5079130;28;20512;-70
2021/04/01 09:55:40;;;;;;;9.10;4.90;;;29.20;57.50;;;;;;5080174;28;20986;-71
2021/04/01 09:58:18;;;;;;;7.73;3.80;;;30.00;57.30;;;;;;5080649;28;20807;-71
2021/04/01 10:03:37;;;;;;;5.70;4.27;;;31.20;55.80;;;;;;5056370;28;20477;-71
2021/04/01 10:06:05;;;;;;;8.97;4.43;;;32.00;54.50;;;;;;5084668;28;20716;-71
2021/04/01 10:08:35;;;;;;;7.67;4.20;;;32.00;54.50;;;;;;5084535;28;20803;-71
2021/04/01 10:11:15;;;;;;;12.30;4.70;;;31.80;54.60;;;;;;5083011;28;20521;-72
2021/04/01 10:13:42;;;;;;;8.60;4.90;;;32.30;54.00;;;;;;5083760;28;20470;-71
2021/04/01 10:16:21;;;;;;;9.60;5.00;;;32.60;53.00;;;;;;5081202;28;20951;-71
2021/04/01 10:18:49;;;;;;;5.67;4.30;;;32.80;53.30;;;;;;5086219;28;20451;-72
2021/04/01 10:21:16;;;;;;;8.10;4.90;;;32.60;53.60;;;;;;5085568;28;20488;-71
2021/04/01 10:23:43;;;;;;;6.37;4.23;;;33.20;51.90;;;;;;5088027;28;20863;-71
2021/04/01 10:26:11;;;;;;;7.40;3.83;;;33.60;50.90;;;;;;5088273;28;20458;-72
2021/04/01 10:28:42;;;;;;;7.60;4.30;;;34.50;49.80;;;;;;5087224;28;20461;-71
2021/04/01 10:31:18;;;;;;;5.97;3.87;;;35.00;49.80;;;;;;5088285;28;20478;-72
2021/04/01 10:34:02;;;;;;;6.20;4.47;;;35.50;48.70;;;;;;5088346;28;20557;-71
2021/04/01 10:36:29;;;;;;;9.00;4.40;;;35.90;47.80;;;;;;5088805;28;20467;-71
2021/04/01 10:39:06;;;;;;;10.80;4.40;;;35.90;48.00;;;;;;5088097;28;20465;-71
2021/04/01 10:41:43;;;;;;;8.43;4.53;;;35.90;49.20;;;;;;5088470;28;20492;-71
2021/04/01 10:44:11;;;;;;;5.93;4.63;;;34.70;49.50;;;;;;5088406;28;20768;-71
2021/04/01 10:46:42;;;;;;;8.33;4.37;;;35.20;49.30;;;;;;5088319;28;20458;-71
2021/04/01 10:49:10;;;;;;;7.10;3.90;;;35.50;49.20;;;;;;5087902;28;20464;-71
2021/04/01 10:51:38;;;;;;;8.50;5.00;;;35.20;48.40;;;;;;5088429;28;20483;-71
2021/04/01 10:54:09;;;;;;;5.07;4.47;;;35.00;49.10;;;;;;5088272;28;20873;-71
2021/04/01 10:56:45;;;;;;;9.90;4.80;;;34.80;49.00;;;;;;5088333;28;20460;-71
2021/04/01 10:59:12;;;;;;;10.33;4.27;;;34.70;48.00;;;;;;5088318;28;20865;-71
2021/04/01 11:01:41;;;;;;;5.87;4.30;;;34.70;49.20;;;;;;5069367;28;20486;-71
2021/04/01 11:04:10;;;;;;;8.30;4.50;;;34.60;47.50;;;;;;5069873;28;20556;-71
2021/04/01 11:06:38;;;;;;;9.57;4.77;;;33.90;48.90;;;;;;5069233;28;20851;-71
2021/04/01 11:09:05;;;;;;;6.13;4.40;;;33.90;49.90;;;;;;5071771;28;20463;-72
2021/04/01 11:11:39;;;;;;;5.90;3.90;;;34.40;49.00;;;;;;5072769;28;20480;-71
2021/04/01 11:14:06;;;;;;;6.30;3.90;;;35.10;49.00;;;;;;5072328;28;20464;-71
2021/04/01 11:16:34;;;;;;;7.37;4.27;;;35.10;48.50;;;;;;5073060;28;20470;-71
2021/04/01 11:19:02;;;;;;;4.43;4.03;;;35.10;49.60;;;;;;5071587;28;20461;-72
2021/04/01 11:21:33;;;;;;;6.37;4.30;;;35.40;47.60;;;;;;5072481;28;20568;-71
2021/04/01 11:24:01;;;;;;;4.97;4.17;;;36.00;49.20;;;;;;5072061;28;20457;-71
2021/04/01 11:26:28;;;;;;;6.17;4.03;;;36.20;47.70;;;;;;5072508;28;20470;-71
2021/04/01 11:28:56;;;;;;;5.27;3.63;;;36.20;46.90;;;;;;5071689;28;20971;-71
2021/04/01 11:31:24;;;;;;;3.53;3.23;;;36.20;47.50;;;;;;5071741;28;20487;-71
2021/04/01 11:33:52;;;;;;;4.10;3.20;;;36.30;48.40;;;;;;5071812;28;20463;-71
2021/04/01 11:36:19;;;;;;;3.43;2.70;;;36.60;44.50;;;;;;5071004;28;20469;-71
2021/04/01 11:38:49;;;;;;;4.77;2.97;;;36.10;44.30;;;;;;5070908;28;20957;-71
2021/04/01 11:41:19;;;;;;;5.30;2.80;;;34.90;43.90;;;;;;5070964;28;20484;-71
2021/04/01 11:43:49;;;;;;;3.50;3.07;;;34.10;45.40;;;;;;5071581;28;20473;-71
2021/04/01 11:46:18;;;;;;;2.87;2.67;;;33.80;47.70;;;;;;5071056;28;20465;-71
2021/04/01 11:48:45;;;;;;;2.37;2.00;;;33.10;47.20;;;;;;5070697;28;20498;-71
2021/04/01 11:51:18;;;;;;;5.20;2.63;;;32.20;47.60;;;;;;5071007;28;20490;-71
2021/04/01 11:53:45;;;;;;;3.60;2.70;;;31.80;48.70;;;;;;5071028;28;20460;-71
2021/04/01 11:56:12;;;;;;;3.10;2.60;;;32.00;49.10;;;;;;5070714;28;20993;-71
2021/04/01 11:58:39;;;;;;;3.30;3.00;;;32.40;49.80;;;;;;5070767;28;20475;-70
2021/04/01 12:01:09;;;;;;;2.30;2.03;;;32.30;49.90;;;;;;5071224;28;20475;-71
2021/04/01 12:03:47;;;;;;;3.90;2.70;;;32.30;49.30;;;;;;5088648;28;21009;-71
2021/04/01 12:06:15;;;;;;;5.10;2.63;;;32.80;48.90;;;;;;5092727;28;20559;-71
2021/04/01 12:08:41;;;;;;;3.27;2.57;;;33.60;48.70;;;;;;5092614;28;20873;-71
2021/04/01 12:11:07;;;;;;;3.97;2.50;;;34.50;46.20;;;;;;5092227;28;20481;-73
2021/04/01 12:13:34;;;;;;;3.30;3.00;;;34.30;45.10;;;;;;5092852;28;20468;-70
2021/04/01 12:16:01;;;;;;;3.10;2.30;;;33.90;47.50;;;;;;5092077;28;20457;-71
2021/04/01 12:18:40;;;;;;;3.60;2.40;;;34.20;46.70;;;;;;5091579;28;20464;-71
2021/04/01 12:21:06;;;;;;;4.27;2.60;;;34.50;47.10;;;;;;5090900;28;20483;-70
2021/04/01 12:23:41;;;;;;;3.40;2.60;;;34.60;47.00;;;;;;5090620;28;20485;-71
2021/04/01 12:26:08;;;;;;;3.30;2.37;;;35.10;46.10;;;;;;5090525;28;21055;-71
2021/04/01 12:28:34;;;;;;;2.83;2.57;;;35.50;44.80;;;;;;5090389;28;20909;-71
2021/04/01 12:31:01;;;;;;;4.63;2.47;;;35.60;46.10;;;;;;5157980;22;20490;-71
2021/04/01 12:33:29;;;;;;;2.60;2.17;;;35.50;45.30;;;;;;5069684;28;20864;-70
2021/04/01 12:35:57;;;;;;;3.27;2.57;;;35.20;45.90;;;;;;5070209;28;20592;-70
2021/04/01 12:38:31;;;;;;;4.17;2.50;;;35.30;47.10;;;;;;5069434;28;20521;-71
2021/04/01 12:40:59;;;;;;;2.97;2.60;;;35.40;46.30;;;;;;5070339;28;20481;-71
2021/04/01 12:43:33;;;;;;;5.67;2.60;;;35.60;47.60;;;;;;5069643;28;20856;-72
2021/04/01 12:45:59;;;;;;;3.40;2.77;;;35.80;45.50;;;;;;5070248;28;20462;-71
2021/04/01 12:48:37;;;;;;;4.87;2.50;;;35.60;45.90;;;;;;5069318;28;20465;-72
2021/04/01 12:51:03;;;;;;;4.60;2.27;;;35.50;45.00;;;;;;5070319;28;20505;-70
2021/04/01 12:53:30;;;;;;;6.13;2.97;;;35.80;45.50;;;;;;5069601;28;21018;-71
2021/04/01 12:56:00;;;;;;;2.90;2.70;;;35.80;45.50;;;;;;5069758;28;20831;-71
2021/04/01 12:58:31;;;;;;;7.43;3.33;;;35.40;46.40;;;;;;5069551;28;20473;-70
2021/04/01 13:01:01;;;;;;;4.43;2.90;;;35.10;47.50;;;;;;5067608;28;20486;-71
2021/04/01 13:03:28;;;;;;;4.70;3.17;;;35.10;47.00;;;;;;5078216;28;20485;-70
2021/04/01 13:05:57;;;;;;;5.40;3.37;;;34.80;47.10;;;;;;5071098;28;20828;-71
2021/04/01 13:11:14;;;;;;;2.80;2.60;;;33.50;49.20;;;;;;5069081;28;20855;-71
2021/04/01 13:13:41;;;;;;;4.23;3.07;;;33.30;50.40;;;;;;5068742;28;20451;-72
2021/04/01 13:16:08;;;;;;;4.80;3.10;;;33.30;48.70;;;;;;5069481;28;20459;-72
2021/04/01 13:18:35;;;;;;;3.10;2.40;;;33.00;49.00;;;;;;5067626;28;20467;-71
2021/04/01 13:21:02;;;;;;;3.97;3.23;;;32.60;48.70;;;;;;5068851;28;20482;-71
2021/04/01 13:23:32;;;;;;;3.47;3.10;;;32.50;48.10;;;;;;5068271;28;20490;-70
2021/04/01 13:25:59;;;;;;;6.17;3.07;;;31.80;48.80;;;;;;5072281;28;20506;-71
2021/04/01 13:28:26;;;;;;;5.80;3.30;;;30.70;50.10;;;;;;5088156;28;20838;-71
2021/04/01 13:31:00;;;;;;;6.63;3.33;;;30.00;52.10;;;;;;5087802;28;20477;-70
2021/04/01 13:33:41;;;;;;;5.77;3.27;;;29.20;51.20;;;;;;5083764;28;21017;-71
2021/04/01 13:36:17;;;;;;;5.53;3.23;;;29.00;52.40;;;;;;5088693;28;20464;-70
2021/04/01 13:38:44;;;;;;;3.80;2.93;;;29.20;52.40;;;;;;5087907;28;20875;-69
2021/04/01 13:41:13;;;;;;;4.07;3.27;;;29.50;51.90;;;;;;5088566;28;20549;-71
2021/04/01 13:43:40;;;;;;;5.83;3.10;;;29.30;51.60;;;;;;5088600;28;20958;-68
2021/04/01 13:46:06;;;;;;;3.53;3.20;;;28.80;53.00;;;;;;5089079;28;20462;-69
2021/04/01 13:48:33;;;;;;;6.60;3.80;;;28.40;53.80;;;;;;5087487;28;20459;-72
2021/04/01 13:51:04;;;;;;;4.70;3.40;;;28.40;53.50;;;;;;5093325;28;21024;-72
2021/04/01 13:53:36;;;;;;;5.20;3.10;;;28.70;53.20;;;;;;5108068;28;20449;-71
2021/04/01 13:56:13;;;;;;;5.00;3.40;;;28.50;53.10;;;;;;5109401;28;21059;-72
2021/04/01 14:10:09;;;;;;;9.53;3.80;;;27.00;56.80;;;;;;5085170;28;20812;-70
2021/04/01 14:12:35;;;;;;;5.23;3.27;;;27.20;55.50;;;;;;5088341;28;20479;-71
2021/04/01 14:15:09;;;;;;;5.57;3.70;;;27.70;54.70;;;;;;5088943;28;20460;-70
2021/04/01 14:17:37;;;;;;;9.10;3.73;;;28.10;53.10;;;;;;5089103;28;20686;-71
2021/04/01 14:20:11;;;;;;;6.50;3.57;;;28.40;52.00;;;;;;5089225;28;20518;-72